Time;durP1;ratioP1;P1;durP2;ratioP2;P2;SDS_P1;SDS_P2;PMS_P1;PMS_P2;Temp;Humidity;BMP_temperature;BMP_pressure;BME280_temperature;BME280_humidity;BME280_pressure;Samples;Min_cycle;Max_cycle;Signal;HPM_P1;HPM_P2
2021/08/23 00:02:13;;;;;;;;;6.00;4.50;;;;;18.92;65.39;102155.63;5080666;28;46230;-82
2021/08/23 00:04:38;;;;;;;;;7.00;5.75;;;;;18.92;65.13;102163.63;5081486;28;45255;-83
2021/08/23 00:07:04;;;;;;;;;6.50;5.25;;;;;18.92;64.95;102167.16;5081849;28;45216;-83
2021/08/23 00:09:30;;;;;;;;;7.25;7.00;;;;;18.95;65.77;102160.84;5094825;27;45420;-77
2021/08/23 00:11:56;;;;;;;;;7.00;5.75;;;;;18.95;65.16;102153.72;5080908;28;45465;-78
2021/08/23 00:14:21;;;;;;;;;9.00;5.50;;;;;18.96;65.02;102158.13;5081349;27;45313;-78
2021/08/23 00:16:47;;;;;;;;;5.50;5.50;;;;;18.96;65.51;102165.25;5081214;28;45284;-78
2021/08/23 00:19:12;;;;;;;;;3.75;3.75;;;;;18.96;65.42;102160.78;5081094;28;45272;-78
2021/08/23 00:21:44;;;;;;;;;6.00;5.50;;;;;18.96;66.29;102158.13;5085890;27;45401;-78
2021/08/23 00:24:31;;;;;;;;;4.75;4.75;;;;;18.97;65.90;102164.28;5070415;28;45608;-78
2021/08/23 00:26:58;;;;;;;;;6.00;4.50;;;;;18.98;65.29;102158.03;5080511;27;45415;-79
2021/08/23 00:29:25;;;;;;;;;4.50;4.50;;;;;19.01;65.93;102157.91;5088150;27;45459;-78
2021/08/23 00:31:51;;;;;;;;;4.50;4.50;;;;;18.99;65.43;102152.63;5081154;28;45443;-78
2021/08/23 00:34:17;;;;;;;;;7.50;6.50;;;;;19.04;65.49;102156.91;5081116;28;45295;-79
2021/08/23 00:36:43;;;;;;;;;6.00;4.25;;;;;19.05;65.40;102153.28;5063005;28;45165;-80
2021/08/23 00:39:10;;;;;;;;;6.75;5.25;;;;;19.04;65.72;102160.41;5080429;28;45674;-80
2021/08/23 00:41:37;;;;;;;;;7.25;5.50;;;;;19.02;65.40;102159.63;5069970;28;45527;-79
2021/08/23 00:44:03;;;;;;;;;6.75;4.00;;;;;19.01;65.49;102147.25;5077631;28;45292;-78
2021/08/23 00:46:28;;;;;;;;;5.00;5.00;;;;;19.04;65.75;102143.56;5081016;28;45457;-79
2021/08/23 00:48:54;;;;;;;;;6.00;5.75;;;;;19.05;65.57;102151.50;5080819;28;45256;-79
2021/08/23 00:51:20;;;;;;;;;5.00;4.75;;;;;19.05;65.83;102147.94;5062757;28;47369;-79
2021/08/23 00:53:46;;;;;;;;;5.25;5.00;;;;;19.00;66.01;102145.50;5083247;27;45260;-78
2021/08/23 00:56:12;;;;;;;;;5.75;4.50;;;;;19.01;66.20;102144.59;5091166;27;45180;-79
2021/08/23 00:58:38;;;;;;;;;4.50;4.50;;;;;19.01;65.87;102147.25;5080630;28;45210;-79
2021/08/23 01:01:09;;;;;;;;;4.50;4.50;;;;;19.05;65.31;102143.50;5087684;27;45614;-79
2021/08/23 01:03:50;;;;;;;;;6.75;6.00;;;;;19.07;65.70;102146.06;5087429;27;45708;-79
2021/08/23 01:06:16;;;;;;;;;5.50;5.50;;;;;19.06;65.77;102144.38;5080473;28;45416;-80
2021/08/23 01:08:41;;;;;;;;;6.25;4.50;;;;;19.05;65.95;102140.81;5080286;28;45447;-80
2021/08/23 01:11:10;;;;;;;;;6.50;5.00;;;;;19.10;66.04;102143.28;5080053;28;45396;-79
2021/08/23 01:13:43;;;;;;;;;4.25;4.25;;;;;19.07;66.02;102136.28;5080133;27;45249;-80
2021/08/23 01:16:08;;;;;;;;;4.75;4.75;;;;;19.09;65.58;102144.19;5079648;28;45363;-78
2021/08/23 01:18:34;;;;;;;;;6.75;5.25;;;;;19.08;65.87;102140.69;5080344;28;45338;-80
2021/08/23 01:21:00;;;;;;;;;6.75;5.00;;;;;19.15;65.84;102146.59;5069666;28;46268;-80
2021/08/23 01:23:27;;;;;;;;;6.00;5.75;;;;;19.15;66.11;102146.59;5076499;28;45209;-79
2021/08/23 01:25:53;;;;;;;;;7.00;4.75;;;;;19.16;65.87;102145.63;5080535;27;45203;-79
2021/08/23 01:28:40;;;;;;;;;5.00;4.50;;;;;19.15;65.89;102143.06;5080167;28;45465;-79
2021/08/23 01:31:05;;;;;;;;;5.00;5.00;;;;;19.20;65.58;102149.06;5079901;28;45222;-80
2021/08/23 01:33:31;;;;;;;;;5.25;4.75;;;;;19.20;65.81;102149.06;5079758;28;45508;-82
2021/08/23 01:35:59;;;;;;;;;7.25;4.25;;;;;19.19;65.92;102144.66;5079850;28;45581;-81
2021/08/23 01:38:25;;;;;;;;;6.00;4.25;;;;;19.19;65.51;102147.31;5080109;27;45388;-81
2021/08/23 01:41:00;;;;;;;;;4.00;4.00;;;;;19.18;65.96;102154.47;5077596;27;45429;-82
2021/08/23 01:43:25;;;;;;;;;5.00;4.00;;;;;19.12;65.87;102144.94;5079875;28;45311;-81
2021/08/23 01:45:51;;;;;;;;;8.00;4.25;;;;;19.12;66.04;102152.94;5078522;28;45298;-81
2021/08/23 01:48:16;;;;;;;;;5.50;5.00;;;;;19.14;65.98;102157.34;5061528;27;46397;-79
2021/08/23 01:50:42;;;;;;;;;7.00;4.75;;;;;19.16;65.63;102155.44;5080139;28;46308;-80
2021/08/23 01:53:07;;;;;;;;;5.75;3.75;;;;;19.19;65.15;102155.31;5079857;28;45235;-81
2021/08/23 01:55:32;;;;;;;;;4.50;3.25;;;;;19.22;65.58;102156.06;5080289;28;45242;-82
2021/08/23 01:57:58;;;;;;;;;6.25;4.25;;;;;19.22;65.61;102156.06;5079269;28;45526;-82
2021/08/23 02:00:23;;;;;;;;;7.00;5.25;;;;;19.22;64.96;102152.53;5091008;27;46258;-82
2021/08/23 02:02:48;;;;;;;;;5.00;5.00;;;;;19.22;65.31;102158.72;5081368;27;45398;-81
2021/08/23 02:05:14;;;;;;;;;3.00;3.00;;;;;19.20;65.80;102154.41;5080133;28;45196;-81
2021/08/23 02:07:39;;;;;;;;;5.00;5.00;;;;;19.16;65.75;102156.28;5074996;28;45490;-81
2021/08/23 02:10:05;;;;;;;;;5.25;4.00;;;;;19.17;65.84;102158.06;5079884;28;45239;-81
2021/08/23 02:12:31;;;;;;;;;4.50;4.00;;;;;19.14;65.94;102157.34;5079565;27;45377;-80
2021/08/23 02:14:56;;;;;;;;;6.00;4.25;;;;;19.14;65.79;102160.84;5092659;27;45307;-85
2021/08/23 02:17:21;;;;;;;;;5.00;5.00;;;;;19.12;65.38;102152.94;5079471;28;45346;-80
2021/08/23 02:19:47;;;;;;;;;6.00;5.00;;;;;19.17;65.74;102151.84;5079336;27;45332;-81
2021/08/23 02:22:12;;;;;;;;;7.00;5.00;;;;;19.20;65.60;102157.06;5079384;27;45484;-79
2021/08/23 02:24:38;;;;;;;;;5.50;5.50;;;;;19.14;65.90;102150.19;5061464;28;45387;-81
2021/08/23 02:27:03;;;;;;;;;6.00;4.50;;;;;19.10;65.62;102156.59;5058999;28;45532;-80
2021/08/23 02:29:29;;;;;;;;;6.50;4.25;;;;;19.07;66.15;102160.28;5082854;28;45356;-81
2021/08/23 02:31:54;;;;;;;;;5.50;5.00;;;;;19.04;66.34;102157.75;5082025;28;45323;-82
2021/08/23 02:34:19;;;;;;;;;4.50;4.50;;;;;18.97;65.96;102150.97;5086056;27;45326;-83
2021/08/23 02:36:45;;;;;;;;;6.00;4.25;;;;;18.95;66.87;102159.03;5082735;28;45410;-83
2021/08/23 02:39:10;;;;;;;;;6.00;6.00;;;;;18.92;66.93;102151.19;5076141;28;45349;-83
2021/08/23 02:41:35;;;;;;;;;6.00;5.50;;;;;18.91;66.85;102151.25;5075287;28;45598;-82
2021/08/23 02:44:01;;;;;;;;;8.50;4.75;;;;;18.89;67.23;102146.84;5082366;28;45351;-80
2021/08/23 02:46:27;;;;;;;;;6.50;5.50;;;;;18.91;66.89;102152.13;5064641;27;45191;-80
2021/08/23 02:48:52;;;;;;;;;4.00;4.00;;;;;18.94;66.49;102154.63;5083628;27;45294;-80
2021/08/23 02:51:18;;;;;;;;;5.25;5.25;;;;;18.95;66.84;102158.16;5073616;28;46096;-79
2021/08/23 02:53:43;;;;;;;;;6.25;3.75;;;;;18.95;66.64;102159.03;5082717;28;45228;-79
2021/08/23 02:56:08;;;;;;;;;6.50;6.25;;;;;18.92;66.70;102150.31;5064337;28;45826;-80
2021/08/23 02:58:34;;;;;;;;;9.00;6.00;;;;;18.89;66.59;102148.66;5082210;27;46085;-80
2021/08/23 03:00:59;;;;;;;;;5.50;5.50;;;;;18.86;67.02;102143.50;5082519;28;45259;-78
2021/08/23 03:03:25;;;;;;;;;7.75;6.00;;;;;18.86;66.66;102139.03;5064577;28;45271;-77
2021/08/23 03:05:50;;;;;;;;;6.25;4.00;;;;;18.84;66.94;102138.22;5082654;28;45447;-77
2021/08/23 03:08:15;;;;;;;;;10.75;6.25;;;;;18.82;67.67;102141.88;5082471;28;46324;-78
2021/08/23 03:10:41;;;;;;;;;5.75;4.75;;;;;18.81;67.19;102146.38;5082539;27;45433;-80
2021/08/23 03:13:07;;;;;;;;;8.50;6.00;;;;;18.82;67.45;102147.22;5082634;28;45740;-80
2021/08/23 03:15:33;;;;;;;;;9.50;5.50;;;;;18.84;67.55;102148.88;5082233;27;45492;-77
2021/08/23 03:17:58;;;;;;;;;5.00;5.00;;;;;18.88;67.04;102154.94;5082080;28;45442;-77
2021/08/23 03:20:23;;;;;;;;;6.50;6.00;;;;;18.88;66.78;102154.94;5082155;28;45350;-77
2021/08/23 03:22:49;;;;;;;;;5.00;5.00;;;;;18.88;67.33;102146.94;5064236;28;45294;-77
2021/08/23 03:25:14;;;;;;;;;6.25;6.00;;;;;18.87;66.83;102147.88;5081848;27;45348;-77
2021/08/23 03:27:40;;;;;;;;;8.75;5.50;;;;;18.89;67.40;102148.66;5082273;28;45426;-80
2021/08/23 03:30:06;;;;;;;;;8.50;5.00;;;;;18.93;66.92;102144.06;5063649;28;45988;-79
2021/08/23 03:32:31;;;;;;;;;6.25;5.00;;;;;18.95;67.09;102143.06;5082090;28;45481;-79
2021/08/23 03:34:56;;;;;;;;;7.00;6.00;;;;;18.94;67.35;102149.31;5073516;27;47230;-78
2021/08/23 03:37:22;;;;;;;;;6.75;5.50;;;;;18.92;67.12;102152.97;5081349;28;45267;-78
2021/08/23 03:39:47;;;;;;;;;5.75;5.25;;;;;18.88;67.55;102147.81;5065093;28;45227;-79
2021/08/23 03:42:12;;;;;;;;;6.25;6.25;;;;;18.91;67.92;102151.25;5082027;28;45466;-83
2021/08/23 03:44:38;;;;;;;;;9.25;6.50;;;;;18.89;67.23;102146.84;5081265;27;45565;-81
2021/08/23 03:47:03;;;;;;;;;7.50;7.00;;;;;18.88;67.47;102142.47;5081502;28;45579;-83
2021/08/23 03:49:29;;;;;;;;;9.00;5.00;;;;;18.86;67.79;102143.50;5063551;28;46013;-78
2021/08/23 03:51:54;;;;;;;;;8.75;6.25;;;;;18.85;67.31;102142.63;5081551;28;45555;-79
2021/08/23 03:54:20;;;;;;;;;6.50;5.25;;;;;18.91;68.25;102140.59;5081876;28;45504;-80
2021/08/23 03:56:45;;;;;;;;;9.00;6.00;;;;;18.91;68.20;102146.81;5080626;28;45243;-80
2021/08/23 03:59:10;;;;;;;;;8.75;5.75;;;;;18.87;68.13;102140.75;5081539;28;45429;-80
2021/08/23 04:01:36;;;;;;;;;6.50;6.50;;;;;18.86;67.81;102143.50;5081525;28;45308;-79
2021/08/23 04:04:01;;;;;;;;;8.00;7.00;;;;;18.88;68.19;102139.81;5089611;27;45418;-79
2021/08/23 04:06:26;;;;;;;;;7.25;6.00;;;;;18.87;67.90;102138.09;5085203;27;45526;-80
2021/08/23 04:08:52;;;;;;;;;5.25;5.25;;;;;18.86;67.92;102141.69;5081680;28;45437;-82
2021/08/23 04:11:17;;;;;;;;;7.00;7.00;;;;;18.86;68.14;102147.03;5081477;28;45439;-83
2021/08/23 04:13:43;;;;;;;;;6.50;4.25;;;;;18.84;68.25;102140.88;5081501;28;45302;-84
2021/08/23 04:16:16;;;;;;;;;5.50;5.50;;;;;18.80;68.46;102138.44;5081141;27;46487;-84
2021/08/23 04:18:42;;;;;;;;;8.00;7.00;;;;;18.82;68.78;102145.41;5094771;27;45675;-78
2021/08/23 04:21:08;;;;;;;;;7.00;6.00;;;;;18.78;68.60;102144.72;5081542;28;45455;-84
2021/08/23 04:23:33;;;;;;;;;9.00;6.50;;;;;18.76;68.69;102140.38;5080935;28;45283;-87
2021/08/23 04:25:59;;;;;;;;;6.50;5.75;;;;;18.75;69.34;102146.63;5080705;28;45350;-86
2021/08/23 04:28:24;;;;;;;;;8.00;6.50;;;;;18.74;69.11;102145.75;5080914;27;46606;-85
2021/08/23 04:30:49;;;;;;;;;12.25;7.25;;;;;18.75;69.52;102152.84;5081269;28;45410;-87
2021/08/23 04:33:16;;;;;;;;;7.25;7.25;;;;;18.73;69.20;102153.84;5081110;28;45575;-86
2021/08/23 04:35:42;;;;;;;;;5.50;5.00;;;;;18.75;69.63;102151.97;5075805;27;46841;-85
2021/08/23 04:38:07;;;;;;;;;6.50;6.00;;;;;18.73;69.19;102145.84;5081185;28;45279;-83
2021/08/23 04:40:33;;;;;;;;;8.25;5.75;;;;;18.77;69.40;102155.41;5060579;28;45215;-83
2021/08/23 04:42:59;;;;;;;;;7.75;6.25;;;;;18.78;69.41;102159.81;5080382;28;45642;-82
2021/08/23 04:45:24;;;;;;;;;7.00;5.00;;;;;18.78;69.70;102151.81;5080120;28;45546;-83
2021/08/23 04:47:50;;;;;;;;;2.75;2.75;;;;;18.82;69.44;102157.88;5080705;28;45228;-83
2021/08/23 04:50:15;;;;;;;;;8.00;7.00;;;;;18.84;69.35;102161.34;5078318;28;45437;-83
2021/08/23 04:52:44;;;;;;;;;10.00;7.75;;;;;18.84;68.82;102159.53;5061699;28;46083;-81
2021/08/23 04:55:10;;;;;;;;;11.25;9.75;;;;;18.86;69.64;102155.00;5062323;28;48245;-82
2021/08/23 04:57:36;;;;;;;;;8.25;8.25;;;;;18.87;69.85;102167.38;5066630;27;45244;-84
2021/08/23 05:00:02;;;;;;;;;8.25;7.75;;;;;18.83;70.02;102164.94;5071628;28;45461;-84
2021/08/23 05:02:28;;;;;;;;;7.00;7.00;;;;;18.82;70.24;102169.38;5080701;27;45794;-83
2021/08/23 05:04:53;;;;;;;;;9.00;8.00;;;;;18.80;69.97;102165.06;5079041;28;45409;-82
2021/08/23 05:07:18;;;;;;;;;8.50;8.50;;;;;18.79;69.73;102166.88;5079269;28;45430;-81
2021/08/23 05:09:44;;;;;;;;;8.75;8.00;;;;;18.80;69.90;102165.94;5079291;28;45399;-81
2021/08/23 05:12:09;;;;;;;;;9.00;9.00;;;;;18.82;70.04;102180.03;5074539;28;45481;-82
2021/08/23 05:14:35;;;;;;;;;13.00;10.50;;;;;18.77;70.03;102182.91;5078144;28;45319;-81
2021/08/23 05:17:00;;;;;;;;;6.75;5.75;;;;;18.77;70.01;102176.72;5078843;28;45137;-80
2021/08/23 05:19:25;;;;;;;;;10.00;10.00;;;;;18.76;70.11;102177.66;5076414;28;45434;-82
2021/08/23 05:21:51;;;;;;;;;10.25;8.75;;;;;18.76;70.23;102178.53;5057696;28;47641;-82
2021/08/23 05:24:16;;;;;;;;;13.50;11.50;;;;;18.77;70.49;102184.72;5078741;28;45487;-79
2021/08/23 05:26:41;;;;;;;;;12.75;10.75;;;;;18.75;70.07;102183.91;5077152;27;45386;-81
2021/08/23 05:29:07;;;;;;;;;9.75;7.25;;;;;18.72;69.94;102184.91;5075667;28;45291;-81
2021/08/23 05:31:32;;;;;;;;;12.50;10.50;;;;;18.70;70.20;102181.47;5075227;28;45207;-77
2021/08/23 05:33:57;;;;;;;;;14.50;13.00;;;;;18.69;70.15;102189.53;5071039;28;45611;-77
2021/08/23 05:36:23;;;;;;;;;13.00;11.75;;;;;18.66;70.02;102188.75;5058084;28;45655;-77
2021/08/23 05:38:48;;;;;;;;;12.50;11.50;;;;;18.63;69.70;102188.88;5077795;28;45505;-77
2021/08/23 05:41:14;;;;;;;;;10.50;9.25;;;;;18.65;69.71;102191.44;5050254;28;46224;-77
2021/08/23 05:43:39;;;;;;;;;14.75;12.25;;;;;18.65;69.64;102200.31;5060160;28;48193;-76
2021/08/23 05:46:04;;;;;;;;;14.50;12.75;;;;;18.66;69.77;102196.72;5075589;28;45467;-76
2021/08/23 05:48:30;;;;;;;;;13.25;12.00;;;;;18.70;69.60;102196.56;5074677;28;45609;-76
2021/08/23 05:50:56;;;;;;;;;13.00;9.75;;;;;18.69;69.26;102198.38;5078479;28;45400;-76
2021/08/23 05:53:21;;;;;;;;;14.25;14.25;;;;;18.67;69.45;102202.91;5078481;28;45456;-76
2021/08/23 05:55:47;;;;;;;;;13.25;13.00;;;;;18.61;69.93;102198.72;5074156;28;45415;-76
2021/08/23 05:58:13;;;;;;;;;16.00;14.50;;;;;18.58;69.97;102203.31;5080618;27;45293;-76
2021/08/23 06:00:38;;;;;;;;;17.25;15.75;;;;;18.55;70.06;102210.50;5079813;28;45457;-76
2021/08/23 06:03:04;;;;;;;;;19.00;14.50;;;;;18.57;69.91;102205.09;5063977;28;48251;-76
2021/08/23 06:05:30;;;;;;;;;19.00;14.25;;;;;18.61;69.90;102213.84;5081978;27;45571;-76
2021/08/23 06:07:55;;;;;;;;;14.00;13.75;;;;;18.62;70.20;102212.91;5083467;28;45291;-76
2021/08/23 06:10:21;;;;;;;;;18.25;14.50;;;;;18.60;69.85;102218.28;5083363;28;45494;-76
2021/08/23 06:12:46;;;;;;;;;12.00;10.25;;;;;18.61;70.04;102220.03;5081771;28;45268;-76
2021/08/23 06:15:12;;;;;;;;;16.75;16.75;;;;;18.60;69.70;102214.75;5080651;28;45318;-76
2021/08/23 06:17:37;;;;;;;;;12.50;9.25;;;;;18.59;69.71;102216.56;5067610;28;45287;-76
2021/08/23 06:20:04;;;;;;;;;15.50;14.75;;;;;18.61;69.90;102219.16;5083256;28;46069;-76
2021/08/23 06:22:30;;;;;;;;;18.00;15.25;;;;;18.63;70.22;102227.94;5080818;28;45397;-76
2021/08/23 06:24:56;;;;;;;;;21.25;18.25;;;;;18.69;70.09;102225.03;5056143;28;45664;-76
2021/08/23 06:27:22;;;;;;;;;19.25;14.25;;;;;18.75;69.91;102221.19;5078121;28;45489;-76
2021/08/23 06:29:47;;;;;;;;;13.25;11.75;;;;;18.80;69.72;102235.19;5064200;28;45287;-76
2021/08/23 06:32:13;;;;;;;;;14.50;13.25;;;;;18.83;69.08;102232.38;5066102;28;45436;-76
2021/08/23 06:34:38;;;;;;;;;13.25;13.00;;;;;18.81;69.06;102220.94;5062475;28;45275;-76
2021/08/23 06:37:04;;;;;;;;;16.00;15.00;;;;;18.89;69.00;102231.22;5062690;28;45231;-76
2021/08/23 06:39:29;;;;;;;;;12.25;12.25;;;;;18.92;68.51;102227.56;5071989;28;46214;-76
2021/08/23 06:41:54;;;;;;;;;18.25;15.75;;;;;18.94;68.15;102228.38;5080981;28;47039;-76
2021/08/23 06:44:20;;;;;;;;;17.00;16.00;;;;;18.94;68.18;102225.72;5068805;28;45228;-76
2021/08/23 06:46:46;;;;;;;;;20.50;15.50;;;;;18.93;67.90;102223.97;5063019;28;45492;-76
2021/08/23 06:49:11;;;;;;;;;17.75;14.75;;;;;18.95;67.91;102227.44;5074080;28;45302;-76
2021/08/23 06:51:36;;;;;;;;;21.00;19.75;;;;;19.03;67.85;102227.97;5074029;27;45569;-76
2021/08/23 06:54:02;;;;;;;;;24.25;18.25;;;;;19.09;67.26;102224.13;5075608;27;45280;-76
2021/08/23 06:56:27;;;;;;;;;16.25;13.50;;;;;19.12;67.26;102227.53;5082663;27;45438;-76
2021/08/23 06:58:54;;;;;;;;;18.00;16.25;;;;;19.19;66.80;102224.59;5080509;28;46973;-76
2021/08/23 07:01:20;;;;;;;;;16.75;14.00;;;;;19.22;66.36;102233.34;5079105;28;48534;-76
2021/08/23 07:03:46;;;;;;;;;14.75;12.00;;;;;19.24;66.64;102227.94;5072072;28;45393;-76
2021/08/23 07:06:12;;;;;;;;;19.00;14.50;;;;;19.29;66.28;102228.59;5069162;28;45298;-76
2021/08/23 07:08:37;;;;;;;;;14.25;11.50;;;;;19.31;66.41;102231.19;5080374;28;47455;-76
2021/08/23 07:11:03;;;;;;;;;14.25;12.00;;;;;19.36;66.47;102228.31;5068844;27;45613;-76
2021/08/23 07:13:29;;;;;;;;;11.25;10.50;;;;;19.37;65.61;102236.22;5079744;27;45254;-76
2021/08/23 07:15:56;;;;;;;;;14.00;11.00;;;;;19.34;65.89;102228.38;5081429;28;45229;-76
2021/08/23 07:18:22;;;;;;;;;14.00;12.50;;;;;19.36;65.62;102242.47;5077003;28;46835;-76
2021/08/23 07:20:51;;;;;;;;;13.50;13.00;;;;;19.36;65.27;102230.97;5068928;28;45527;-76
2021/08/23 07:23:17;;;;;;;;;13.00;12.00;;;;;19.36;65.46;102233.66;5072788;28;45253;-76
2021/08/23 07:25:42;;;;;;;;;13.75;13.75;;;;;19.32;65.55;102241.78;5077172;28;45722;-76
2021/08/23 07:28:08;;;;;;;;;16.25;11.25;;;;;19.33;65.72;102235.50;5078213;27;45482;-76
2021/08/23 07:30:33;;;;;;;;;10.75;9.00;;;;;19.33;64.95;102238.16;5073551;28;48294;-76
2021/08/23 07:32:58;;;;;;;;;10.50;10.00;;;;;19.34;65.09;102234.56;5073283;28;45298;-76
2021/08/23 07:35:24;;;;;;;;;13.50;11.50;;;;;19.34;64.90;102237.25;5082103;27;45177;-76
2021/08/23 07:37:49;;;;;;;;;9.25;8.00;;;;;19.36;65.34;102238.97;5078188;28;46227;-76
2021/08/23 07:40:16;;;;;;;;;10.75;9.25;;;;;19.39;65.43;102230.81;5071523;28;46193;-76
2021/08/23 07:42:42;;;;;;;;;9.75;9.50;;;;;19.49;65.22;102239.25;5066806;27;45667;-76
2021/08/23 07:45:09;;;;;;;;;10.25;7.00;;;;;19.55;64.95;102237.19;5063407;28;45466;-76
2021/08/23 07:47:34;;;;;;;;;13.25;12.50;;;;;19.59;64.44;102234.34;5079690;28;45573;-76
2021/08/23 07:50:01;;;;;;;;;12.00;12.00;;;;;19.61;64.38;102232.47;5063247;28;46999;-76
2021/08/23 07:52:26;;;;;;;;;12.50;10.00;;;;;19.68;64.11;102233.88;5066329;28;45492;-75
2021/08/23 07:54:51;;;;;;;;;9.25;9.25;;;;;19.69;64.02;102230.31;5071615;28;45523;-76
2021/08/23 07:57:17;;;;;;;;;11.25;11.25;;;;;19.71;64.30;102231.09;5071688;28;46391;-76
2021/08/23 07:59:42;;;;;;;;;9.75;8.50;;;;;19.74;63.71;102236.28;5071386;28;45457;-76
2021/08/23 08:02:07;;;;;;;;;13.75;10.75;;;;;19.73;63.09;102229.19;5074462;27;45432;-76
2021/08/23 08:04:33;;;;;;;;;11.00;11.00;;;;;19.75;63.72;102226.47;5076989;28;46501;-76
2021/08/23 08:06:58;;;;;;;;;8.75;7.75;;;;;19.78;63.82;102218.31;5070446;28;47198;-76
2021/08/23 08:09:24;;;;;;;;;10.00;9.00;;;;;19.84;62.81;102234.03;5061472;28;48028;-76
2021/08/23 08:11:49;;;;;;;;;9.00;9.00;;;;;19.81;62.76;102226.16;5075584;28;45498;-76
2021/08/23 08:14:14;;;;;;;;;13.75;11.50;;;;;19.76;62.52;102225.53;5072884;28;45450;-76
2021/08/23 08:16:40;;;;;;;;;15.25;11.50;;;;;19.72;63.24;102235.50;5072009;28;45286;-76
2021/08/23 08:19:05;;;;;;;;;15.75;10.50;;;;;19.72;62.92;102231.97;5073778;28;45368;-76
2021/08/23 08:21:30;;;;;;;;;14.00;12.00;;;;;19.72;62.90;102238.16;5070743;28;45416;-76
2021/08/23 08:23:56;;;;;;;;;14.00;13.00;;;;;19.75;62.77;102232.69;5072606;27;45527;-76
2021/08/23 08:26:22;;;;;;;;;13.75;11.50;;;;;19.75;62.85;102232.69;5065877;28;45946;-76
2021/08/23 08:28:48;;;;;;;;;12.75;10.25;;;;;19.74;63.65;102230.94;5075196;28;45796;-76
2021/08/23 08:31:13;;;;;;;;;15.25;14.00;;;;;19.82;62.45;102233.25;5065983;28;45325;-76
2021/08/23 08:33:39;;;;;;;;;14.50;12.50;;;;;19.86;63.42;102229.47;5066498;28;45461;-76
2021/08/23 08:36:04;;;;;;;;;14.00;12.25;;;;;19.97;63.10;102238.75;5069334;28;45942;-76
2021/08/23 08:38:30;;;;;;;;;11.50;11.50;;;;;20.01;63.11;102227.00;5071043;27;47206;-76
2021/08/23 08:41:00;;;;;;;;;17.25;14.00;;;;;20.02;63.10;102228.72;5064928;28;47030;-76
2021/08/23 08:43:28;;;;;;;;;12.25;11.75;;;;;20.02;62.38;102231.41;5061347;28;45542;-76
2021/08/23 08:45:54;;;;;;;;;10.75;10.50;;;;;19.96;62.83;102229.88;5067212;28;45703;-76
2021/08/23 08:48:21;;;;;;;;;12.75;11.50;;;;;19.96;63.13;102229.88;5065077;28;46650;-76
2021/08/23 08:50:51;;;;;;;;;6.00;6.00;;;;;19.97;63.02;102231.63;5065827;28;45401;-76
2021/08/23 08:53:16;;;;;;;;;12.50;10.25;;;;;20.01;63.26;102222.53;5068492;28;46343;-76
2021/08/23 08:55:42;;;;;;;;;12.50;11.50;;;;;20.10;63.35;102225.69;5065741;28;46385;-76
2021/08/23 08:58:08;;;;;;;;;10.75;10.75;;;;;20.15;63.02;102229.00;5080500;27;48349;-77
2021/08/23 09:00:37;;;;;;;;;12.25;10.50;;;;;20.16;62.96;102221.84;5069959;28;45549;-76
2021/08/23 09:03:04;;;;;;;;;9.00;8.75;;;;;20.17;62.47;102231.59;5071774;27;45584;-76
2021/08/23 09:05:42;;;;;;;;;11.75;11.25;;;;;20.20;62.63;102231.47;5065764;28;47398;-76
2021/08/23 09:08:08;;;;;;;;;14.00;11.50;;;;;20.19;62.17;102235.91;5066270;28;46302;-76
2021/08/23 09:10:38;;;;;;;;;9.25;7.75;;;;;20.23;61.49;102241.94;5066659;28;45535;-76
2021/08/23 09:13:10;;;;;;;;;9.50;9.00;;;;;20.26;61.84;102238.28;5060294;28;47206;-76
2021/08/23 09:15:36;;;;;;;;;10.00;9.00;;;;;20.28;61.80;102239.91;5065044;28;48873;-76
2021/08/23 09:18:04;;;;;;;;;11.75;10.25;;;;;20.32;61.99;102240.66;5065422;28;46054;-76
2021/08/23 09:20:30;;;;;;;;;12.75;9.75;;;;;20.34;61.55;102238.75;5063497;28;45723;-76
2021/08/23 09:23:09;;;;;;;;;10.25;7.50;;;;;20.37;61.60;102241.28;5060052;28;45482;-76
2021/08/23 09:25:34;;;;;;;;;11.75;9.00;;;;;20.35;62.32;102241.34;5069993;27;45712;-76
2021/08/23 09:28:08;;;;;;;;;10.00;9.25;;;;;20.34;62.06;102236.97;5064886;27;45523;-76
2021/08/23 09:30:34;;;;;;;;;11.25;9.00;;;;;20.33;62.34;102237.88;5062401;28;45636;-76
2021/08/23 09:33:02;;;;;;;;;11.00;9.00;;;;;20.37;62.45;102237.75;5064363;28;45669;-76
2021/08/23 09:35:36;;;;;;;;;11.50;9.25;;;;;20.38;62.41;102236.78;5072191;27;45589;-75
2021/08/23 09:38:12;;;;;;;;;11.00;11.00;;;;;20.43;62.48;102229.41;5063335;28;46940;-76
2021/08/23 09:40:37;;;;;;;;;6.00;6.00;;;;;20.46;62.23;102243.47;5061254;28;45311;-76
2021/08/23 09:43:13;;;;;;;;;12.25;9.25;;;;;20.49;62.23;102241.56;5065511;28;45618;-76
2021/08/23 09:45:47;;;;;;;;;9.75;6.50;;;;;20.40;61.86;102243.78;5063238;28;47061;-76
2021/08/23 09:48:14;;;;;;;;;10.25;9.00;;;;;20.41;61.55;102247.31;5063551;28;46872;-76
2021/08/23 09:50:48;;;;;;;;;14.25;11.25;;;;;20.43;62.25;102243.63;5063260;28;46074;-76
2021/08/23 09:53:17;;;;;;;;;12.50;10.25;;;;;20.54;61.65;102252.88;5061966;27;45622;-76
2021/08/23 09:55:45;;;;;;;;;6.50;6.00;;;;;20.54;61.67;102261.78;5063997;28;45473;-76
2021/08/23 09:58:11;;;;;;;;;11.25;9.25;;;;;20.55;61.87;102251.94;5059533;28;45441;-76
2021/08/23 10:00:38;;;;;;;;;4.25;3.75;;;;;20.56;61.77;102248.31;5060058;28;45689;-75
2021/08/23 10:03:14;;;;;;;;;8.00;7.25;;;;;20.56;62.34;102254.53;5061234;28;45463;-76
2021/08/23 10:05:48;;;;;;;;;9.25;7.50;;;;;20.58;62.13;102251.78;5066067;28;45487;-76
2021/08/23 10:08:19;;;;;;;;;7.00;7.00;;;;;20.60;61.92;102254.34;5065723;28;45479;-76
2021/08/23 10:10:46;;;;;;;;;8.00;7.00;;;;;20.58;62.31;102246.44;5064040;28;45776;-76
2021/08/23 10:13:11;;;;;;;;;9.50;9.00;;;;;20.58;61.79;102252.66;5066275;28;45429;-76
2021/08/23 10:15:37;;;;;;;;;11.25;11.00;;;;;20.54;62.14;102250.22;5067773;28;45456;-76
2021/08/23 10:18:03;;;;;;;;;9.50;9.25;;;;;20.49;62.44;102260.28;5062253;28;45538;-76
2021/08/23 10:20:29;;;;;;;;;8.75;8.50;;;;;20.43;62.42;102254.31;5063955;28;47004;-76
2021/08/23 10:22:56;;;;;;;;;7.00;7.00;;;;;20.39;62.89;102250.06;5063043;28;47340;-76
2021/08/23 10:25:22;;;;;;;;;9.75;9.00;;;;;20.43;62.64;102250.75;5063156;28;45567;-76
2021/08/23 10:27:48;;;;;;;;;6.00;6.00;;;;;20.48;62.37;102240.72;5065344;28;45641;-76
2021/08/23 10:30:26;;;;;;;;;7.50;7.50;;;;;20.50;62.70;102249.50;5068635;28;45897;-76
2021/08/23 10:32:52;;;;;;;;;10.50;8.75;;;;;20.51;62.50;102239.69;5061782;28;45728;-76
2021/08/23 10:35:21;;;;;;;;;10.00;7.50;;;;;20.46;62.43;102238.13;5065256;28;45430;-76
2021/08/23 10:37:47;;;;;;;;;11.50;8.75;;;;;20.48;62.65;102229.16;5073025;28;45494;-76
2021/08/23 10:40:13;;;;;;;;;7.00;7.00;;;;;20.51;62.90;102242.34;5069746;27;45589;-76
2021/08/23 10:42:46;;;;;;;;;9.25;8.00;;;;;20.52;62.83;102246.78;5067384;28;45406;-76
2021/08/23 10:45:15;;;;;;;;;6.50;6.25;;;;;20.51;62.87;102240.56;5064044;28;45334;-76
2021/08/23 10:47:41;;;;;;;;;7.50;5.50;;;;;20.50;62.79;102240.63;5071745;28;45344;-76
2021/08/23 10:50:09;;;;;;;;;7.50;7.25;;;;;20.50;63.17;102243.28;5079310;27;45524;-76
2021/08/23 10:52:36;;;;;;;;;11.25;8.25;;;;;20.45;63.32;102241.72;5064484;28;45274;-76
2021/08/23 10:55:06;;;;;;;;;10.00;8.50;;;;;20.39;63.99;102252.75;5071595;28;45391;-76
2021/08/23 10:57:31;;;;;;;;;8.25;8.00;;;;;20.31;65.45;102249.59;5063438;28;47380;-76
2021/08/23 11:00:14;;;;;;;;;6.25;5.00;;;;;20.15;67.03;102255.69;5076925;28;45210;-75
2021/08/23 11:02:40;;;;;;;;;8.00;7.25;;;;;20.07;66.97;102253.38;5082948;27;45328;-75
2021/08/23 11:05:20;;;;;;;;;8.25;8.25;;;;;20.09;67.21;102250.63;5080701;27;45408;-76
2021/08/23 11:07:47;;;;;;;;;7.00;7.00;;;;;20.15;66.29;102249.50;5073460;28;47373;-77
2021/08/23 11:10:24;;;;;;;;;12.75;8.25;;;;;20.18;66.61;102242.19;5071619;27;45369;-77
2021/08/23 11:12:54;;;;;;;;;6.50;6.00;;;;;20.20;65.09;102240.31;5064603;28;45546;-77
2021/08/23 11:15:22;;;;;;;;;7.00;7.00;;;;;20.22;65.38;102238.41;5067501;28;46073;-77
2021/08/23 11:17:50;;;;;;;;;8.00;7.25;;;;;20.30;65.56;102237.16;5070969;28;46145;-77